Time;durP1;ratioP1;P1;durP2;ratioP2;P2;SDS_P1;SDS_P2;PMS_P1;PMS_P2;Temp;Humidity;BMP_temperature;BMP_pressure;BME280_temperature;BME280_humidity;BME280_pressure;Samples;Min_cycle;Max_cycle;Signal;HPM_P1;HPM_P2
2022/08/04 00:02:03;;;;;;;3.27;2.97;;;;;;;24.94;52.61;157783.84;5032514;28;20957;-74
2022/08/04 00:04:34;;;;;;;3.20;2.80;;;;;;;24.92;52.50;157779.91;5015269;28;20455;-74
2022/08/04 00:07:08;;;;;;;3.60;2.77;;;;;;;24.90;52.72;157774.69;5014947;28;20455;-74
2022/08/04 00:09:39;;;;;;;4.10;3.47;;;;;;;24.87;52.84;157765.50;5003555;28;20480;-75
2022/08/04 00:12:07;;;;;;;4.00;3.60;;;;;;;24.86;52.51;157764.19;5011112;28;20451;-75
2022/08/04 00:14:38;;;;;;;3.63;3.33;;;;;;;24.86;52.09;157764.19;5013282;28;20466;-75
2022/08/04 00:17:06;;;;;;;2.90;2.50;;;;;;;24.85;51.80;157760.28;5032316;28;20458;-75
2022/08/04 00:19:36;;;;;;;3.30;3.00;;;;;;;24.87;51.41;157765.50;5030017;28;20543;-75
2022/08/04 00:22:04;;;;;;;3.17;2.97;;;;;;;24.90;51.23;157774.69;5013501;28;20550;-76
2022/08/04 00:24:32;;;;;;;3.20;2.90;;;;;;;24.88;52.52;157769.47;5032543;28;20491;-75
2022/08/04 00:26:58;;;;;;;3.63;3.33;;;;;;;24.82;53.30;157753.75;5009291;28;20456;-75
2022/08/04 00:29:27;;;;;;;3.70;3.40;;;;;;;24.79;53.23;157745.88;4997842;28;20475;-75
2022/08/04 00:31:56;;;;;;;5.37;3.63;;;;;;;24.70;54.09;157723.59;5012922;28;20487;-75
2022/08/04 00:34:24;;;;;;;3.60;3.30;;;;;;;24.68;54.05;157717.06;5012989;28;20451;-75
2022/08/04 00:36:53;;;;;;;4.10;3.80;;;;;;;24.63;54.38;157705.28;5029057;28;20453;-75
2022/08/04 00:39:20;;;;;;;3.70;3.40;;;;;;;24.62;54.24;157701.38;5014386;28;20498;-75
2022/08/04 00:42:11;;;;;;;4.10;3.50;;;;;;;24.53;54.73;157677.81;5031964;28;20459;-75
2022/08/04 00:44:45;;;;;;;3.77;3.10;;;;;;;24.53;54.87;157679.16;5011160;28;20451;-75
2022/08/04 00:47:30;;;;;;;5.17;3.80;;;;;;;24.48;54.89;157666.06;5013959;28;20498;-75
2022/08/04 00:50:06;;;;;;;5.33;3.30;;;;;;;24.44;55.11;157654.25;5012694;28;20578;-75
2022/08/04 00:52:55;;;;;;;3.83;3.50;;;;;;;24.38;54.85;157639.91;5002583;28;20458;-76
2022/08/04 00:55:42;;;;;;;3.93;3.63;;;;;;;24.35;55.24;157630.75;4997578;28;20481;-76
2022/08/04 00:58:23;;;;;;;3.50;3.20;;;;;;;24.38;55.28;157638.59;5012074;28;20486;-75
2022/08/04 01:01:01;;;;;;;4.23;3.83;;;;;;;24.32;55.66;157622.88;5024274;28;20480;-75
2022/08/04 01:03:41;;;;;;;4.10;3.80;;;;;;;24.22;56.01;157599.31;5033625;28;20809;-75
2022/08/04 01:06:12;;;;;;;4.40;4.03;;;;;;;24.13;56.38;157575.81;5030657;28;20539;-75
2022/08/04 01:08:47;;;;;;;6.30;4.23;;;;;;;24.02;56.83;157547.00;5030012;28;20546;-75
2022/08/04 01:11:22;;;;;;;4.20;3.90;;;;;;;24.01;56.63;157543.09;5005831;28;20827;-76
2022/08/04 01:13:59;;;;;;;4.37;3.40;;;;;;;23.96;56.41;157531.28;5028874;28;21028;-76
2022/08/04 01:16:27;;;;;;;4.70;3.63;;;;;;;23.99;56.38;157539.13;5017891;28;20451;-83
2022/08/04 01:19:00;;;;;;;3.57;3.27;;;;;;;23.97;55.81;157533.91;5013739;28;20609;-83
2022/08/04 01:22:00;;;;;;;4.60;3.27;;;;;;;23.96;55.29;157531.28;5012910;28;21116;-83
2022/08/04 01:24:45;;;;;;;3.30;3.10;;;;;;;23.98;55.10;157536.56;5022704;28;20553;-83
2022/08/04 01:27:18;;;;;;;5.63;3.57;;;;;;;23.87;55.34;157506.47;5012443;28;20466;-83
2022/08/04 01:29:49;;;;;;;3.80;3.50;;;;;;;23.83;55.74;157497.28;5012960;28;20471;-83
2022/08/04 01:32:21;;;;;;;5.70;3.23;;;;;;;23.79;55.90;157485.53;5001007;28;20443;-83
2022/08/04 01:34:51;;;;;;;3.77;3.40;;;;;;;23.76;56.14;157477.69;5021340;28;20522;-83
2022/08/04 01:37:24;;;;;;;3.50;3.20;;;;;;;23.76;56.06;157477.69;5004470;28;20817;-83
2022/08/04 01:40:06;;;;;;;3.70;3.40;;;;;;;23.72;56.28;157467.25;5031336;28;20487;-83
2022/08/04 01:42:36;;;;;;;3.60;3.33;;;;;;;23.66;56.26;157452.88;5011771;28;20456;-83
2022/08/04 01:45:06;;;;;;;4.20;3.23;;;;;;;23.69;55.96;157460.72;5008826;28;20539;-82
2022/08/04 01:47:35;;;;;;;3.50;3.20;;;;;;;23.66;56.45;157452.88;5030957;28;20972;-83
2022/08/04 01:50:06;;;;;;;3.23;2.93;;;;;;;23.64;56.06;157448.91;5030586;28;20494;-83
2022/08/04 01:52:34;;;;;;;5.80;3.43;;;;;;;23.63;56.36;157445.03;5016646;28;20502;-83
2022/08/04 01:55:03;;;;;;;5.83;3.60;;;;;;;23.62;56.78;157442.38;5022954;28;20470;-83
2022/08/04 01:57:32;;;;;;;4.77;3.27;;;;;;;23.59;56.79;157434.53;5030799;28;20875;-83
2022/08/04 02:00:00;;;;;;;3.57;3.27;;;;;;;23.61;56.59;157439.81;5026303;28;20449;-83
2022/08/04 02:02:28;;;;;;;3.50;3.20;;;;;;;23.60;56.83;157437.16;4998515;28;20448;-83
2022/08/04 02:04:55;;;;;;;4.47;3.60;;;;;;;23.62;56.47;157442.38;5012756;28;20466;-83
2022/08/04 02:07:47;;;;;;;3.70;3.23;;;;;;;23.59;57.26;157434.53;5017725;28;20444;-83
2022/08/04 02:10:23;;;;;;;3.60;3.30;;;;;;;23.58;57.03;157431.97;5027231;28;20497;-83
2022/08/04 02:12:56;;;;;;;3.80;3.50;;;;;;;23.59;57.19;157434.53;5030449;28;20843;-83
2022/08/04 02:15:27;;;;;;;3.67;3.37;;;;;;;23.57;56.78;157429.31;5030171;28;20452;-83
2022/08/04 02:18:02;;;;;;;3.47;3.20;;;;;;;23.51;56.63;157413.69;5000701;28;20461;-83
2022/08/04 02:20:34;;;;;;;3.00;2.80;;;;;;;23.41;56.06;157387.50;5012888;28;21006;-83
2022/08/04 02:23:03;;;;;;;3.97;2.90;;;;;;;23.34;56.38;157369.16;5012079;28;20910;-83
2022/08/04 02:25:34;;;;;;;3.43;3.13;;;;;;;23.29;56.51;157356.09;5028797;28;20518;-83
2022/08/04 02:28:12;;;;;;;4.50;3.33;;;;;;;23.28;56.33;157354.78;5030649;28;20454;-83
2022/08/04 02:30:44;;;;;;;3.33;2.90;;;;;;;23.25;56.88;157345.63;5038801;28;20953;-83
2022/08/04 02:33:13;;;;;;;3.57;3.27;;;;;;;23.25;57.20;157346.94;5011493;28;20455;-83
2022/08/04 02:35:41;;;;;;;3.10;2.80;;;;;;;23.23;57.40;157340.41;5009397;28;20551;-82
2022/08/04 02:38:13;;;;;;;3.67;3.37;;;;;;;23.20;57.48;157332.53;5029382;28;20483;-83
2022/08/04 02:40:41;;;;;;;3.63;3.33;;;;;;;23.18;57.60;157327.34;5029449;28;20442;-83
2022/08/04 02:43:10;;;;;;;3.40;3.10;;;;;;;23.13;57.67;157315.59;5009962;28;20463;-83
2022/08/04 02:45:37;;;;;;;3.40;3.10;;;;;;;23.10;57.92;157307.72;5029260;28;20533;-83
2022/08/04 02:48:04;;;;;;;3.63;3.33;;;;;;;23.11;57.90;157309.06;5029354;28;20462;-83
2022/08/04 02:50:34;;;;;;;3.53;3.23;;;;;;;23.08;57.88;157302.53;5028478;28;21004;-83
2022/08/04 02:53:03;;;;;;;3.57;3.27;;;;;;;23.04;58.17;157292.03;5029629;28;20452;-83
2022/08/04 02:55:30;;;;;;;4.60;3.27;;;;;;;23.02;58.54;157288.16;5028521;28;20490;-83
2022/08/04 02:57:58;;;;;;;4.33;3.70;;;;;;;23.00;58.38;157282.94;5029243;28;20530;-83
2022/08/04 03:00:25;;;;;;;5.60;3.17;;;;;;;22.97;58.88;157273.75;5023686;28;20450;-82
2022/08/04 03:02:56;;;;;;;7.20;3.13;;;;;;;22.95;58.80;157269.81;5029111;28;20451;-76
2022/08/04 03:05:26;;;;;;;4.27;3.87;;;;;;;22.92;59.00;157262.03;5029896;28;20530;-75
2022/08/04 03:08:09;;;;;;;4.30;3.50;;;;;;;22.88;59.36;157251.53;5026490;28;20452;-75
2022/08/04 03:10:56;;;;;;;4.20;3.90;;;;;;;22.85;59.40;157243.69;5011124;28;20507;-76
2022/08/04 03:13:46;;;;;;;3.83;3.43;;;;;;;22.79;59.76;157226.75;5011916;28;20456;-75
2022/08/04 03:16:46;;;;;;;4.20;3.57;;;;;;;22.72;60.28;157209.72;5006480;28;20571;-75
2022/08/04 03:19:43;;;;;;;3.63;3.33;;;;;;;22.71;59.79;157205.84;5028497;28;20452;-75
2022/08/04 03:22:45;;;;;;;3.80;3.40;;;;;;;22.69;60.31;157200.63;5028491;28;20483;-75
2022/08/04 03:25:26;;;;;;;4.13;3.70;;;;;;;22.66;60.05;157192.78;5023992;28;20490;-75
2022/08/04 03:28:42;;;;;;;4.63;3.77;;;;;;;22.59;60.34;157175.72;5007799;28;20456;-76
2022/08/04 03:31:22;;;;;;;4.07;3.67;;;;;;;22.60;60.32;157178.34;4986459;28;20525;-77
2022/08/04 03:34:03;;;;;;;5.50;4.00;;;;;;;22.56;60.64;157166.59;5028616;28;20798;-77
2022/08/04 03:36:55;;;;;;;4.30;3.60;;;;;;;22.54;60.92;157162.66;5026724;28;20482;-77
2022/08/04 03:39:51;;;;;;;4.67;3.70;;;;;;;22.51;61.08;157153.50;5015563;28;20529;-76
2022/08/04 03:42:48;;;;;;;3.70;3.40;;;;;;;22.46;60.81;157141.75;5023046;28;20455;-84
2022/08/04 03:45:34;;;;;;;6.43;2.97;;;;;;;22.43;60.98;157133.91;5031461;28;20889;-81
2022/08/04 03:48:25;;;;;;;4.30;3.30;;;;;;;22.45;60.88;157139.16;5013390;28;20857;-83
2022/08/04 03:54:01;;;;;;;5.53;4.10;;;;;;;22.47;61.14;157143.06;5015399;28;20460;-84
2022/08/04 03:56:55;;;;;;;5.50;3.67;;;;;;;22.46;61.09;157141.75;5033253;28;20452;-84
2022/08/04 03:59:45;;;;;;;9.33;3.70;;;;;;;22.44;61.25;157137.84;5011383;28;20471;-83
2022/08/04 04:02:36;;;;;;;5.20;3.80;;;;;;;22.43;61.03;157133.91;5013077;28;20649;-83
2022/08/04 04:05:40;;;;;;;5.60;3.30;;;;;;;22.41;60.96;157128.69;5033029;28;20452;-83
2022/08/04 04:08:23;;;;;;;4.40;3.57;;;;;;;22.40;61.03;157127.38;5030518;28;20447;-83
2022/08/04 04:11:12;;;;;;;4.57;3.50;;;;;;;22.40;61.19;157126.06;5024021;28;20572;-83
2022/08/04 04:13:50;;;;;;;4.23;3.93;;;;;;;22.39;61.11;157124.81;5009692;28;20550;-83
2022/08/04 04:16:32;;;;;;;3.73;3.43;;;;;;;22.41;60.91;157128.69;5010819;28;20482;-83
2022/08/04 04:19:23;;;;;;;3.80;3.50;;;;;;;22.41;61.20;157128.69;5033091;28;20578;-83
2022/08/04 04:22:12;;;;;;;3.77;3.30;;;;;;;22.44;60.69;157136.53;5014426;28;20466;-83
2022/08/04 04:24:53;;;;;;;4.20;3.80;;;;;;;22.45;60.83;157140.44;5004414;28;20818;-83
2022/08/04 04:27:31;;;;;;;4.50;3.33;;;;;;;22.48;60.76;157146.97;5032045;28;20503;-83
2022/08/04 04:30:04;;;;;;;3.50;3.30;;;;;;;22.50;60.84;157152.22;5031705;28;20482;-82
2022/08/04 04:32:55;;;;;;;3.70;3.40;;;;;;;22.51;60.18;157154.81;5029950;28;20444;-83
2022/08/04 04:35:31;;;;;;;4.30;3.90;;;;;;;22.54;60.44;157161.34;5007901;28;20477;-83
2022/08/04 04:38:14;;;;;;;3.07;2.87;;;;;;;22.54;59.81;157161.34;5010760;28;20461;-83
2022/08/04 04:40:49;;;;;;;4.10;3.63;;;;;;;22.55;60.08;157165.28;5017927;28;20466;-83
2022/08/04 04:43:31;;;;;;;3.57;3.27;;;;;;;22.60;59.93;157178.34;5014310;28;20617;-83
2022/08/04 04:46:03;;;;;;;4.47;2.90;;;;;;;22.62;59.90;157182.25;5020135;28;20818;-84
2022/08/04 04:48:36;;;;;;;3.50;3.20;;;;;;;22.65;59.70;157190.13;5031558;28;20458;-83
2022/08/04 04:51:10;;;;;;;3.60;3.20;;;;;;;22.69;59.29;157200.63;5028796;28;20567;-84
2022/08/04 04:53:54;;;;;;;3.57;3.23;;;;;;;22.70;59.97;157204.50;5030150;28;20978;-84
2022/08/04 04:56:28;;;;;;;3.80;3.50;;;;;;;22.76;59.62;157220.22;4999660;28;20513;-84
2022/08/04 04:58:55;;;;;;;3.80;3.43;;;;;;;22.82;59.62;157235.84;5009874;28;20466;-83
2022/08/04 05:01:46;;;;;;;4.20;3.80;;;;;;;22.91;60.32;157259.38;5029778;28;20448;-83
2022/08/04 05:04:32;;;;;;;4.57;3.63;;;;;;;23.14;59.61;157316.91;5011286;28;20471;-82
2022/08/04 05:07:15;;;;;;;3.80;3.50;;;;;;;23.56;59.48;157426.75;4999672;28;20456;-83
2022/08/04 05:09:53;;;;;;;4.17;3.80;;;;;;;24.00;58.44;157541.78;5009000;28;20490;-82
2022/08/04 05:12:31;;;;;;;5.90;3.80;;;;;;;24.43;57.85;157653.00;5012977;28;20970;-82
2022/08/04 05:14:59;;;;;;;4.77;4.13;;;;;;;24.72;56.47;157728.88;5026001;28;20462;-82
2022/08/04 05:17:27;;;;;;;4.87;3.73;;;;;;;25.10;55.81;157827.00;5023726;28;20451;-80
2022/08/04 05:20:00;;;;;;;4.47;4.07;;;;;;;25.48;54.93;157923.91;5013814;28;20529;-85
2022/08/04 05:22:30;;;;;;;7.23;3.80;;;;;;;25.77;54.10;157999.81;5016591;28;20448;-85
2022/08/04 05:25:04;;;;;;;4.50;3.40;;;;;;;26.01;53.27;158064.00;5026380;28;20579;-86
2022/08/04 05:27:36;;;;;;;5.97;4.03;;;;;;;26.28;52.88;158132.13;5012346;28;20531;-86
2022/08/04 05:30:05;;;;;;;5.37;4.30;;;;;;;26.57;52.57;158209.41;5034517;28;20547;-86
2022/08/04 05:32:38;;;;;;;6.33;3.93;;;;;;;26.78;51.47;158263.13;5019387;28;20455;-86
2022/08/04 05:35:10;;;;;;;4.03;3.73;;;;;;;26.93;51.58;158302.44;5023587;28;20456;-86
2022/08/04 05:37:39;;;;;;;4.73;4.13;;;;;;;27.14;51.12;158357.44;5012175;28;20413;-79
2022/08/04 05:40:07;;;;;;;4.60;4.13;;;;;;;27.27;50.63;158388.94;5017570;28;20452;-79
2022/08/04 05:42:37;;;;;;;5.60;4.40;;;;;;;27.39;50.71;158421.69;5013938;28;20436;-78
2022/08/04 05:45:04;;;;;;;4.80;4.40;;;;;;;27.61;50.00;158478.09;5014138;28;20444;-78
2022/08/04 05:47:32;;;;;;;4.70;4.20;;;;;;;27.72;48.62;158508.19;5031466;28;20805;-78
2022/08/04 05:50:00;;;;;;;4.53;4.00;;;;;;;27.81;48.65;158530.50;5016295;28;20555;-79
2022/08/04 05:52:29;;;;;;;4.40;4.10;;;;;;;27.97;48.57;158571.13;5009329;28;20579;-79
2022/08/04 05:54:56;;;;;;;4.60;4.07;;;;;;;28.01;48.57;158581.63;5010999;28;20479;-78
2022/08/04 05:57:23;;;;;;;4.80;4.40;;;;;;;28.19;48.82;158630.19;5023384;28;20539;-79
2022/08/04 05:59:51;;;;;;;4.87;4.13;;;;;;;28.36;48.66;158673.44;5027489;28;20482;-79
2022/08/04 06:02:18;;;;;;;5.47;3.97;;;;;;;28.47;48.45;158702.28;5039495;28;20500;-78
2022/08/04 06:04:47;;;;;;;4.03;3.73;;;;;;;28.72;47.55;158767.94;4999065;28;20575;-78
2022/08/04 06:07:14;;;;;;;4.13;3.83;;;;;;;28.86;47.00;158803.31;5013054;28;20958;-77
2022/08/04 06:09:42;;;;;;;4.00;3.60;;;;;;;29.14;45.97;158875.47;5032134;28;20431;-76
2022/08/04 06:12:17;;;;;;;5.70;3.90;;;;;;;29.38;45.58;158938.50;5013342;28;20468;-78
2022/08/04 06:14:45;;;;;;;3.73;3.43;;;;;;;29.63;44.94;159002.81;5027635;28;20550;-78
2022/08/04 06:17:16;;;;;;;4.13;3.77;;;;;;;29.87;44.83;159065.81;4993113;28;20487;-78
2022/08/04 06:19:44;;;;;;;4.53;3.63;;;;;;;30.17;43.92;159144.59;4994077;28;20471;-78
2022/08/04 06:22:12;;;;;;;4.20;3.60;;;;;;;30.43;43.58;159211.56;4997050;28;20440;-78
2022/08/04 06:24:39;;;;;;;4.17;3.87;;;;;;;30.63;42.93;159264.13;5030509;28;20578;-78
2022/08/04 06:27:08;;;;;;;4.17;3.87;;;;;;;30.80;42.78;159308.72;5030435;28;20443;-78
2022/08/04 06:29:39;;;;;;;4.93;4.10;;;;;;;30.92;42.44;159339.00;5037899;28;20847;-76
2022/08/04 06:32:23;;;;;;;6.50;3.80;;;;;;;31.03;42.78;159367.91;5023290;28;20570;-76
2022/08/04 06:34:51;;;;;;;3.97;3.67;;;;;;;31.43;41.61;159471.66;5027827;28;20448;-76
2022/08/04 06:37:18;;;;;;;7.27;3.83;;;;;;;31.54;41.39;159500.59;5010027;28;20448;-76
2022/08/04 06:39:45;;;;;;;6.57;4.27;;;;;;;31.67;41.92;159534.75;5026701;28;20448;-76
2022/08/04 06:42:14;;;;;;;4.20;3.90;;;;;;;31.63;41.62;159524.25;4993807;28;20436;-76
2022/08/04 06:44:46;;;;;;;7.03;4.50;;;;;;;31.89;41.08;159592.56;4993880;28;20816;-77
2022/08/04 06:47:13;;;;;;;6.00;4.20;;;;;;;31.87;41.85;159587.31;5025550;28;20505;-76
2022/08/04 06:49:40;;;;;;;4.73;4.07;;;;;;;31.96;41.09;159609.69;4985902;28;20522;-77
2022/08/04 06:52:07;;;;;;;5.33;3.80;;;;;;;32.18;40.83;159668.84;4992718;28;20526;-77
2022/08/04 06:54:34;;;;;;;5.57;3.80;;;;;;;32.40;40.18;159725.38;4992664;28;20463;-76
2022/08/04 06:57:02;;;;;;;5.20;3.87;;;;;;;32.50;39.99;159751.63;4996310;28;21042;-76
2022/08/04 06:59:31;;;;;;;4.10;3.70;;;;;;;32.75;40.11;159816.13;5008455;28;20585;-76
2022/08/04 07:01:58;;;;;;;6.60;4.20;;;;;;;32.63;40.08;159784.53;5029893;28;20447;-76
2022/08/04 07:04:25;;;;;;;5.27;3.93;;;;;;;32.89;40.00;159854.22;5023335;28;20549;-76
2022/08/04 07:06:51;;;;;;;3.90;3.50;;;;;;;33.03;38.42;159889.72;5019235;28;20875;-76
2022/08/04 07:09:18;;;;;;;6.23;4.10;;;;;;;33.08;38.88;159902.91;5011070;28;20501;-76
2022/08/04 07:11:47;;;;;;;5.17;3.80;;;;;;;33.31;38.69;159962.13;5025873;28;20719;-76
2022/08/04 07:14:14;;;;;;;5.00;3.80;;;;;;;33.40;38.02;159987.09;5024192;28;20462;-76
2022/08/04 07:16:42;;;;;;;6.70;3.40;;;;;;;33.64;37.36;160050.28;5013717;28;20494;-76
2022/08/04 07:19:09;;;;;;;4.50;3.70;;;;;;;33.77;36.85;160081.81;4995589;28;20448;-76
2022/08/04 07:21:36;;;;;;;7.73;3.90;;;;;;;33.84;36.73;160101.53;5007736;28;20451;-77
2022/08/04 07:24:03;;;;;;;4.00;3.43;;;;;;;33.79;36.61;160087.06;5009197;28;20566;-76
2022/08/04 07:26:30;;;;;;;4.50;3.90;;;;;;;33.90;36.82;160117.34;5033401;28;20445;-76
2022/08/04 07:28:58;;;;;;;6.93;4.00;;;;;;;33.85;36.76;160102.88;5032164;28;20569;-76
2022/08/04 07:31:25;;;;;;;7.77;4.30;;;;;;;33.86;36.98;160106.84;5012678;28;20554;-81
2022/08/04 07:33:55;;;;;;;8.23;3.90;;;;;;;33.79;37.01;160087.06;5032297;28;20782;-82
2022/08/04 07:36:22;;;;;;;5.03;3.67;;;;;;;33.89;37.61;160114.69;5015793;28;20549;-82
2022/08/04 07:38:48;;;;;;;4.93;4.10;;;;;;;33.97;36.96;160135.75;5015820;28;20450;-82
2022/08/04 07:41:20;;;;;;;7.23;3.83;;;;;;;34.05;37.23;160155.53;5032277;28;20578;-82
2022/08/04 07:43:47;;;;;;;7.57;3.80;;;;;;;34.16;37.08;160184.47;5032965;28;20451;-82
2022/08/04 07:46:14;;;;;;;4.07;3.43;;;;;;;34.22;36.79;160200.28;5034329;28;20431;-82
2022/08/04 07:48:41;;;;;;;4.37;3.50;;;;;;;34.08;37.29;160164.75;5012239;28;20444;-82
2022/08/04 07:51:09;;;;;;;4.30;3.40;;;;;;;34.32;36.93;160226.56;5027700;28;20522;-82
2022/08/04 07:53:36;;;;;;;9.37;4.70;;;;;;;34.51;36.73;160276.59;5022247;28;20994;-82
2022/08/04 07:56:03;;;;;;;4.20;3.80;;;;;;;34.54;35.95;160284.50;5016320;28;20471;-82
2022/08/04 07:58:30;;;;;;;4.17;3.87;;;;;;;34.40;36.72;160247.63;5017294;28;20443;-82
2022/08/04 08:00:57;;;;;;;4.00;3.70;;;;;;;34.57;36.88;160292.44;5026476;28;20900;-82
2022/08/04 08:03:24;;;;;;;6.33;3.67;;;;;;;34.72;35.87;160331.91;5040227;28;20462;-83
2022/08/04 08:05:51;;;;;;;4.10;3.80;;;;;;;34.68;35.74;160321.41;5031027;28;20454;-82
2022/08/04 08:08:20;;;;;;;3.70;3.40;;;;;;;34.55;35.85;160287.09;5011290;28;20571;-82
2022/08/04 08:10:47;;;;;;;5.43;3.33;;;;;;;34.65;36.68;160313.50;5029993;28;20563;-82
2022/08/04 08:13:15;;;;;;;3.90;3.60;;;;;;;34.91;36.20;160379.28;4999238;28;20574;-82
2022/08/04 08:15:44;;;;;;;3.60;3.30;;;;;;;35.12;36.00;160434.63;5028997;28;20432;-82
2022/08/04 08:18:11;;;;;;;5.20;3.70;;;;;;;34.99;36.35;160400.34;5033211;28;20435;-82
2022/08/04 08:20:38;;;;;;;5.70;3.90;;;;;;;35.36;35.43;160499.13;5013940;28;20531;-82
2022/08/04 08:23:05;;;;;;;5.20;3.60;;;;;;;35.47;35.71;160526.78;5026793;28;20482;-83
2022/08/04 08:25:33;;;;;;;3.60;3.30;;;;;;;35.76;35.23;160601.88;5012072;28;20566;-83
2022/08/04 08:28:04;;;;;;;4.47;3.57;;;;;;;35.54;34.85;160545.25;5023335;28;20483;-83
2022/08/04 08:30:32;;;;;;;3.30;3.10;;;;;;;35.52;35.46;160539.94;5012624;28;20480;-77
2022/08/04 08:33:00;;;;;;;3.27;3.07;;;;;;;35.66;35.02;160575.56;5007829;28;20478;-77
2022/08/04 08:35:29;;;;;;;7.53;3.90;;;;;;;35.67;35.83;160579.50;4995473;28;20475;-77
2022/08/04 08:37:58;;;;;;;4.37;3.60;;;;;;;35.73;34.70;160593.97;5013082;28;20447;-77
2022/08/04 08:40:32;;;;;;;3.97;3.57;;;;;;;35.66;35.31;160576.88;5011165;28;20475;-77
2022/08/04 08:43:22;;;;;;;3.87;3.57;;;;;;;35.80;34.72;160613.72;5012544;28;20866;-77
2022/08/04 08:46:23;;;;;;;4.10;3.57;;;;;;;35.80;34.90;160613.72;5013231;28;20423;-77
2022/08/04 08:49:02;;;;;;;5.40;3.63;;;;;;;36.06;34.43;160680.97;5012593;28;20480;-77
2022/08/04 08:51:52;;;;;;;3.53;3.23;;;;;;;36.18;33.44;160712.56;4988163;28;21019;-77
2022/08/04 08:54:32;;;;;;;4.47;3.00;;;;;;;36.15;34.07;160704.66;5009179;28;20456;-77
2022/08/04 08:57:14;;;;;;;3.60;3.30;;;;;;;36.50;32.46;160796.91;4992115;28;20543;-77
2022/08/04 08:59:55;;;;;;;3.57;3.27;;;;;;;36.64;32.71;160833.78;4992555;28;20199;-77
2022/08/04 09:02:49;;;;;;;3.83;3.53;;;;;;;36.48;32.96;160790.28;5006589;28;20625;-77
2022/08/04 09:05:24;;;;;;;6.40;4.17;;;;;;;36.52;31.88;160800.84;4991298;28;20456;-77
2022/08/04 09:08:04;;;;;;;5.00;3.00;;;;;;;36.48;33.23;160791.66;4992671;28;20212;-77
2022/08/04 09:10:41;;;;;;;3.33;3.03;;;;;;;36.49;33.13;160792.94;4991107;28;20461;-77
2022/08/04 09:13:14;;;;;;;5.33;4.83;;;;;;;36.64;32.27;160832.50;4981316;28;20469;-77
2022/08/04 09:15:47;;;;;;;3.70;3.40;;;;;;;36.64;32.67;160833.78;4992979;28;20206;-77
2022/08/04 09:18:20;;;;;;;4.13;3.30;;;;;;;36.62;33.47;160827.19;4993105;28;20223;-78
2022/08/04 09:20:49;;;;;;;4.13;3.53;;;;;;;36.88;32.47;160895.75;4995929;28;20428;-77
2022/08/04 09:23:24;;;;;;;5.43;3.70;;;;;;;36.88;32.73;160894.41;5011112;28;20679;-77
2022/08/04 09:25:55;;;;;;;3.87;3.57;;;;;;;36.69;32.84;160844.34;5025587;28;20239;-77
2022/08/04 09:28:24;;;;;;;5.70;3.83;;;;;;;36.57;33.09;160814.03;5029902;28;20271;-77
2022/08/04 09:30:57;;;;;;;4.00;3.70;;;;;;;36.70;33.13;160848.25;5030648;28;20207;-77
2022/08/04 09:33:31;;;;;;;4.13;3.70;;;;;;;36.87;32.42;160893.09;5027622;28;20708;-77
2022/08/04 09:36:01;;;;;;;5.20;3.80;;;;;;;36.90;32.38;160901.00;5000016;28;20285;-77
2022/08/04 09:38:34;;;;;;;5.67;3.87;;;;;;;37.00;31.73;160926.06;5029608;28;20216;-77
2022/08/04 09:41:06;;;;;;;3.87;3.50;;;;;;;36.91;31.95;160903.59;5006172;28;20205;-77
2022/08/04 09:43:37;;;;;;;4.23;3.53;;;;;;;36.78;32.41;160868.06;5030777;28;20215;-77
2022/08/04 09:46:10;;;;;;;4.10;3.70;;;;;;;36.68;32.91;160843.00;5027945;28;20558;-77
2022/08/04 09:48:44;;;;;;;5.97;3.40;;;;;;;36.88;32.57;160895.75;4999340;28;20206;-77
2022/08/04 09:51:21;;;;;;;3.70;3.50;;;;;;;36.97;32.81;160919.47;5028079;28;20213;-77
2022/08/04 09:53:58;;;;;;;4.73;4.30;;;;;;;36.89;32.01;160898.34;4996643;28;20216;-76
2022/08/04 09:56:30;;;;;;;3.70;3.37;;;;;;;36.96;31.94;160916.81;5035019;28;20206;-77
2022/08/04 09:59:09;;;;;;;3.43;3.17;;;;;;;37.08;31.17;160948.47;5028956;28;20209;-77
2022/08/04 10:01:38;;;;;;;5.50;3.40;;;;;;;37.01;31.71;160928.72;5011176;28;20229;-77
2022/08/04 10:04:10;;;;;;;4.07;3.78;;;;;;;37.16;31.72;160969.56;5007389;28;20200;-77
2022/08/04 10:06:49;;;;;;;4.30;3.90;;;;;;;37.27;30.78;160995.91;5009320;28;20655;-76
2022/08/04 10:09:44;;;;;;;3.73;3.53;;;;;;;36.95;31.87;160914.22;5030884;28;20261;-76
2022/08/04 10:12:27;;;;;;;4.33;4.03;;;;;;;36.76;32.21;160864.09;4999418;28;20623;-76
2022/08/04 10:15:03;;;;;;;5.20;3.50;;;;;;;36.50;31.74;160795.59;5031184;28;20200;-76
2022/08/04 10:17:50;;;;;;;3.43;3.13;;;;;;;36.58;31.05;160816.66;5012089;28;20206;-76
2022/08/04 10:20:23;;;;;;;4.23;3.83;;;;;;;36.45;30.55;160782.38;5025159;28;21162;-76
2022/08/04 10:22:57;;;;;;;4.33;3.53;;;;;;;36.17;31.07;160708.63;5018626;28;20252;-76
2022/08/04 10:25:31;;;;;;;3.20;2.90;;;;;;;36.95;29.20;160914.22;5027481;28;20340;-76
2022/08/04 10:28:00;;;;;;;3.70;3.40;;;;;;;36.62;29.48;160827.19;5028082;28;20542;-77
2022/08/04 10:30:30;;;;;;;4.10;3.40;;;;;;;36.79;30.89;160872.00;5017642;28;20248;-77
2022/08/04 10:33:04;;;;;;;3.93;3.53;;;;;;;36.65;31.03;160835.09;5010880;28;20669;-77
2022/08/04 10:35:35;;;;;;;4.60;3.23;;;;;;;36.17;29.88;160709.91;5029497;28;20533;-77
2022/08/04 10:38:09;;;;;;;4.87;3.60;;;;;;;36.11;31.05;160694.13;5034879;28;20462;-77
2022/08/04 10:40:44;;;;;;;3.20;3.00;;;;;;;36.32;29.96;160748.13;5011464;28;20451;-77
2022/08/04 10:43:22;;;;;;;3.70;3.40;;;;;;;36.56;29.42;160812.75;5028602;28;20443;-77
2022/08/04 10:45:51;;;;;;;3.40;3.10;;;;;;;36.49;29.14;160792.94;5030300;28;20474;-77
2022/08/04 10:48:24;;;;;;;3.53;3.23;;;;;;;36.60;29.79;160823.25;5015237;28;20469;-77
2022/08/04 10:51:02;;;;;;;3.57;3.27;;;;;;;36.46;28.86;160785.03;5012894;28;20452;-77
2022/08/04 10:53:31;;;;;;;3.23;3.00;;;;;;;36.07;28.94;160683.56;5034272;28;20847;-77
2022/08/04 10:56:02;;;;;;;3.50;3.20;;;;;;;35.85;29.10;160626.88;5016515;28;20863;-77
2022/08/04 10:58:35;;;;;;;3.30;3.10;;;;;;;35.46;29.57;160525.47;5014798;28;20459;-77
2022/08/04 11:01:08;;;;;;;3.60;3.30;;;;;;;35.18;30.96;160450.44;5030710;28;20516;-77
2022/08/04 11:03:41;;;;;;;4.00;2.90;;;;;;;35.22;30.20;160462.25;5031508;28;20451;-77
2022/08/04 11:06:08;;;;;;;3.10;2.83;;;;;;;34.98;30.24;160399.03;5034581;28;20537;-77
2022/08/04 11:08:36;;;;;;;3.50;3.20;;;;;;;35.44;30.26;160518.88;5032738;28;20454;-77
2022/08/04 11:11:08;;;;;;;3.33;3.03;;;;;;;35.46;30.04;160524.13;5026333;28;20440;-77
2022/08/04 11:13:42;;;;;;;3.13;2.93;;;;;;;35.39;29.59;160505.72;5034149;28;20829;-77
2022/08/04 11:16:14;;;;;;;2.93;2.73;;;;;;;35.11;29.91;160432.03;5031882;28;20443;-77
2022/08/04 11:18:48;;;;;;;3.20;3.00;;;;;;;34.94;29.99;160387.19;5031334;28;20473;-77
2022/08/04 11:21:18;;;;;;;3.10;2.80;;;;;;;34.97;30.47;160395.09;5009859;28;20451;-77
2022/08/04 11:23:51;;;;;;;2.83;2.63;;;;;;;34.94;29.56;160387.19;5014748;28;20543;-77
2022/08/04 11:26:23;;;;;;;3.47;3.07;;;;;;;35.12;30.21;160435.94;5026967;28;20941;-77
2022/08/04 11:28:57;;;;;;;3.27;2.93;;;;;;;35.34;29.72;160492.56;5031921;28;20641;-76
2022/08/04 11:31:28;;;;;;;3.53;2.87;;;;;;;35.14;29.77;160439.88;5032496;28;20453;-74
2022/08/04 11:34:04;;;;;;;3.60;3.30;;;;;;;35.24;30.56;160466.25;5018532;28;20483;-77
2022/08/04 11:36:34;;;;;;;4.37;3.33;;;;;;;35.11;30.51;160433.28;5030832;28;20453;-77
2022/08/04 11:39:07;;;;;;;2.93;2.73;;;;;;;34.94;30.28;160387.19;5021144;28;20547;-77
2022/08/04 11:41:42;;;;;;;3.67;3.37;;;;;;;34.99;30.20;160400.34;5028389;28;20446;-77
2022/08/04 11:44:12;;;;;;;3.80;3.50;;;;;;;35.13;30.33;160437.28;5013438;28;20542;-74
2022/08/04 11:46:41;;;;;;;3.30;3.00;;;;;;;34.97;30.10;160395.09;5013746;28;20462;-75
2022/08/04 11:49:12;;;;;;;3.20;2.90;;;;;;;34.77;29.83;160345.06;5016185;28;20542;-76
2022/08/04 11:51:39;;;;;;;3.63;3.33;;;;;;;34.84;30.00;160363.47;5014895;28;20461;-77
2022/08/04 11:54:06;;;;;;;3.33;3.03;;;;;;;34.85;29.95;160364.81;5014061;28;20494;-76
2022/08/04 11:56:33;;;;;;;3.43;3.13;;;;;;;34.81;30.09;160355.63;5013466;28;20459;-76
2022/08/04 11:59:00;;;;;;;4.30;3.47;;;;;;;34.58;30.38;160293.78;5032322;28;20550;-77